Time;durP1;ratioP1;P1;durP2;ratioP2;P2;SDS_P1;SDS_P2;PMS_P1;PMS_P2;Temp;Humidity;BMP_temperature;BMP_pressure;BME280_temperature;BME280_humidity;BME280_pressure;Samples;Min_cycle;Max_cycle;Signal;HPM_P1;HPM_P2
2022/04/06 00:01:40;;;;;;;8.70;4.00;;;;;;;8.66;100.00;100173.06;4998970;28;20605;-74
2022/04/06 00:04:06;;;;;;;5.70;3.60;;;;;;;8.35;100.00;100100.38;4994257;28;20181;-74
2022/04/06 00:06:31;;;;;;;6.03;3.60;;;;;;;8.76;100.00;100149.41;4995233;28;20228;-74
2022/04/06 00:08:57;;;;;;;9.47;4.00;;;;;;;8.20;100.00;100078.34;4990884;28;21453;-72
2022/04/06 00:11:23;;;;;;;7.73;4.03;;;;;;;8.55;100.00;100163.78;4998913;28;20653;-73
2022/04/06 00:13:49;;;;;;;10.83;5.40;;;;;;;8.71;100.00;100163.41;4997617;28;20284;-73
2022/04/06 00:16:15;;;;;;;7.70;4.47;;;;;;;8.08;100.00;100058.59;4997955;28;20527;-73
2022/04/06 00:18:40;;;;;;;8.17;4.50;;;;;;;8.66;100.00;100157.03;4994315;28;21197;-74
2022/04/06 00:21:06;;;;;;;13.70;5.13;;;;;;;8.51;100.00;100117.13;4992296;28;20196;-73
2022/04/06 00:23:31;;;;;;;11.07;5.17;;;;;;;7.78;100.00;100028.72;4998679;28;20188;-73
2022/04/06 00:25:56;;;;;;;10.07;4.50;;;;;;;8.70;100.00;100151.06;4994497;28;20209;-74
2022/04/06 00:28:22;;;;;;;6.10;4.03;;;;;;;8.03;100.00;100056.53;4995420;28;20207;-73
2022/04/06 00:30:48;;;;;;;10.23;4.80;;;;;;;8.12;100.00;100055.31;4995115;28;20230;-74
2022/04/06 00:33:13;;;;;;;12.43;4.10;;;;;;;8.57;100.00;100095.72;4998171;28;20240;-74
2022/04/06 00:35:38;;;;;;;9.17;4.30;;;;;;;8.03;100.00;100021.00;4995743;28;20209;-74
2022/04/06 00:38:05;;;;;;;10.37;4.93;;;;;;;8.58;100.00;100105.38;5002155;28;20272;-74
2022/04/06 00:40:35;;;;;;;10.03;4.10;;;;;;;8.42;100.00;100089.75;4993237;28;20691;-75
2022/04/06 00:43:07;;;;;;;7.37;3.77;;;;;;;8.69;100.00;100128.03;4994508;28;20912;-74
2022/04/06 00:45:32;;;;;;;13.90;4.17;;;;;;;8.20;100.00;100035.63;4993311;28;20464;-76
2022/04/06 00:47:58;;;;;;;11.73;4.77;;;;;;;8.60;100.00;100126.59;4996829;28;20540;-74
2022/04/06 00:50:23;;;;;;;12.23;3.83;;;;;;;8.05;100.00;100038.47;4997508;28;20191;-76
2022/04/06 00:52:55;;;;;;;10.47;4.10;;;;;;;8.65;100.00;100129.47;4997401;28;20197;-74
2022/04/06 00:55:21;;;;;;;7.50;3.67;;;;;;;8.69;100.00;100120.00;5002069;28;20243;-74
2022/04/06 00:57:48;;;;;;;9.63;4.70;;;;;;;8.37;100.00;100078.81;4998808;28;20455;-75
2022/04/06 01:00:15;;;;;;;9.60;4.60;;;;;;;8.17;100.00;100049.38;4990564;28;21004;-74
2022/04/06 01:02:41;;;;;;;12.20;4.60;;;;;;;7.81;100.00;100009.63;4995025;28;20432;-76
2022/04/06 01:05:07;;;;;;;8.40;3.90;;;;;;;8.07;100.00;100057.78;4996178;28;20459;-75
2022/04/06 01:07:32;;;;;;;7.70;5.13;;;;;;;8.72;100.00;100119.59;4994014;28;20196;-73
2022/04/06 01:09:58;;;;;;;9.13;4.57;;;;;;;8.20;100.00;100062.31;4997185;28;20448;-73
2022/04/06 01:12:24;;;;;;;9.90;4.93;;;;;;;8.70;100.00;100110.13;4994935;28;20632;-74
2022/04/06 01:14:49;;;;;;;8.00;4.60;;;;;;;8.37;100.00;100042.22;4997060;28;20216;-74
2022/04/06 01:17:15;;;;;;;12.43;4.80;;;;;;;7.62;100.00;99955.16;4997618;28;20443;-74
2022/04/06 01:19:47;;;;;;;10.53;5.00;;;;;;;8.46;100.00;100082.97;4994825;28;20207;-75
2022/04/06 01:22:17;;;;;;;6.60;4.60;;;;;;;8.53;100.00;100094.50;4997327;28;20193;-75
2022/04/06 01:24:45;;;;;;;10.80;5.60;;;;;;;8.58;100.00;100099.22;4993301;28;20459;-75
2022/04/06 01:27:10;;;;;;;13.90;5.80;;;;;;;8.64;100.00;100097.59;4995988;28;20444;-75
2022/04/06 01:29:37;;;;;;;12.37;4.73;;;;;;;8.77;100.00;100089.59;4991104;28;20439;-74
2022/04/06 01:32:23;;;;;;;12.27;5.70;;;;;;;8.68;100.00;100090.78;4996905;28;20579;-74
2022/04/06 01:34:51;;;;;;;12.73;6.63;;;;;;;8.21;100.00;100061.28;4996084;28;20481;-74
2022/04/06 01:37:17;;;;;;;12.13;7.63;;;;;;;8.42;100.00;100086.22;4997249;28;20447;-73
2022/04/06 01:39:45;;;;;;;10.83;6.97;;;;;;;8.46;100.00;100082.16;4993944;28;20489;-73
2022/04/06 01:42:15;;;;;;;16.13;7.77;;;;;;;8.47;100.00;100079.25;4995032;28;20483;-73
2022/04/06 01:44:41;;;;;;;18.90;9.10;;;;;;;8.05;100.00;100043.81;4993554;28;20490;-73
2022/04/06 01:47:07;;;;;;;16.87;9.07;;;;;;;7.85;100.00;100025.06;4995489;28;20916;-74
2022/04/06 01:52:18;;;;;;;15.90;8.73;;;;;;;7.90;100.00;100017.28;4997822;28;20473;-73
2022/04/06 01:54:55;;;;;;;15.40;10.10;;;;;;;7.84;100.00;100014.56;4993990;28;20463;-75
2022/04/06 01:57:21;;;;;;;19.90;10.73;;;;;;;7.71;100.00;100010.00;4998653;28;20175;-74
2022/04/06 01:59:47;;;;;;;21.60;11.57;;;;;;;7.76;100.00;100010.25;4998693;28;23437;-75
2022/04/06 02:02:14;;;;;;;16.70;10.33;;;;;;;8.19;100.00;100051.81;5000508;28;20188;-75
2022/04/06 02:04:41;;;;;;;19.93;11.47;;;;;;;7.70;100.00;99987.84;4999493;28;20459;-74
2022/04/06 02:07:09;;;;;;;22.83;10.97;;;;;;;8.10;100.00;100008.47;4994598;28;20436;-73
2022/04/06 02:09:36;;;;;;;18.87;10.10;;;;;;;8.31;100.00;100019.00;5000267;28;21013;-75
2022/04/06 02:12:02;;;;;;;15.67;9.83;;;;;;;8.47;100.00;100028.47;4999647;28;21046;-74
2022/04/06 02:14:27;;;;;;;17.30;8.97;;;;;;;8.31;100.00;100010.16;5000538;28;20862;-74
2022/04/06 02:16:53;;;;;;;14.87;10.57;;;;;;;8.15;100.00;99985.44;4996041;28;20534;-73
2022/04/06 02:19:19;;;;;;;26.47;11.80;;;;;;;8.17;100.00;99984.44;4999182;28;20267;-76
2022/04/06 02:21:44;;;;;;;17.63;10.17;;;;;;;8.35;100.00;100003.38;4998315;28;20252;-74
2022/04/06 02:24:10;;;;;;;17.77;9.20;;;;;;;8.07;100.00;99934.06;4999890;28;20197;-75
2022/04/06 02:26:35;;;;;;;17.90;9.17;;;;;;;7.16;100.00;99806.47;4995995;28;20663;-74
2022/04/06 02:29:01;;;;;;;15.73;9.37;;;;;;;8.58;100.00;100037.75;5000604;28;20196;-74
2022/04/06 02:31:27;;;;;;;19.47;10.13;;;;;;;8.20;100.00;99970.69;4999674;28;20657;-74
2022/04/06 02:33:52;;;;;;;17.10;11.50;;;;;;;7.84;100.00;99895.25;4993329;28;20680;-75
2022/04/06 02:36:18;;;;;;;15.20;9.53;;;;;;;8.63;100.00;99999.72;5005824;22;20241;-72
2022/04/06 02:38:45;;;;;;;22.03;10.10;;;;;;;8.46;100.00;100000.13;4980075;28;20662;-72
2022/04/06 02:41:10;;;;;;;21.20;10.33;;;;;;;8.26;100.00;99965.34;4976690;28;20189;-72
2022/04/06 02:43:36;;;;;;;14.37;8.27;;;;;;;8.59;100.00;100005.47;4976099;28;20459;-73
2022/04/06 02:46:02;;;;;;;14.03;8.33;;;;;;;8.61;100.00;99997.22;4974840;28;20213;-73
2022/04/06 02:48:27;;;;;;;16.27;9.40;;;;;;;8.49;100.00;99986.34;4979145;28;20193;-73
2022/04/06 02:50:53;;;;;;;19.30;10.23;;;;;;;8.42;100.00;99972.16;4992113;28;20973;-73
2022/04/06 02:53:18;;;;;;;16.43;9.00;;;;;;;8.53;100.00;99989.41;4982297;28;20213;-73
2022/04/06 02:55:43;;;;;;;13.47;7.47;;;;;;;8.28;100.00;99915.19;4976787;28;23001;-73
2022/04/06 02:58:09;;;;;;;16.80;9.00;;;;;;;8.51;100.00;99984.28;4974855;28;20213;-72
2022/04/06 03:00:35;;;;;;;15.17;8.23;;;;;;;8.59;100.00;99991.25;4978351;28;21458;-72
2022/04/06 03:03:02;;;;;;;14.33;7.77;;;;;;;8.19;100.00;99915.59;4979568;28;20194;-73
2022/04/06 03:05:27;;;;;;;14.57;8.00;;;;;;;8.39;100.00;99937.84;4984007;28;20547;-73
2022/04/06 03:07:52;;;;;;;17.47;7.90;;;;;;;8.06;100.00;99909.22;4983831;28;21084;-73
2022/04/06 03:10:18;;;;;;;14.03;7.50;;;;;;;8.32;100.00;99964.50;4982346;28;20232;-73
2022/04/06 03:12:43;;;;;;;17.23;8.30;;;;;;;8.55;100.00;99952.63;4979562;28;20202;-73
2022/04/06 03:15:09;;;;;;;11.93;6.83;;;;;;;8.65;100.00;99974.41;4983076;28;20256;-73
2022/04/06 03:17:35;;;;;;;22.13;6.63;;;;;;;8.44;100.00;99932.69;4980608;28;20646;-74
2022/04/06 03:20:02;;;;;;;17.23;7.33;;;;;;;8.62;100.00;99972.16;4984435;28;20440;-73
2022/04/06 03:22:28;;;;;;;13.13;6.70;;;;;;;8.62;100.00;99971.31;4983027;28;20445;-73
2022/04/06 03:24:54;;;;;;;14.57;7.60;;;;;;;8.23;100.00;99895.47;4982019;28;21105;-73
2022/04/06 03:27:19;;;;;;;11.20;5.70;;;;;;;8.50;100.00;99925.69;4984302;28;20504;-73
2022/04/06 03:29:45;;;;;;;11.07;5.20;;;;;;;8.57;100.00;99930.00;4982748;28;20217;-73
2022/04/06 03:32:10;;;;;;;9.47;5.90;;;;;;;8.75;100.00;99936.56;4982781;28;20311;-73
2022/04/06 03:34:37;;;;;;;13.40;5.27;;;;;;;8.60;100.00;99926.09;4981415;28;20186;-72
2022/04/06 03:37:02;;;;;;;9.40;4.87;;;;;;;8.07;100.00;99828.09;4983063;28;20222;-73
2022/04/06 03:39:28;;;;;;;9.67;4.67;;;;;;;8.26;100.00;99879.03;4982773;28;20791;-73
2022/04/06 03:41:53;;;;;;;10.23;4.57;;;;;;;8.60;100.00;99926.91;4984069;28;20194;-73
2022/04/06 03:44:19;;;;;;;8.60;4.67;;;;;;;8.28;100.00;99872.44;4981976;28;20194;-73
2022/04/06 03:46:44;;;;;;;9.50;5.17;;;;;;;8.44;100.00;99873.06;4984087;28;20237;-73
2022/04/06 03:49:09;;;;;;;11.53;4.40;;;;;;;8.84;100.00;99937.97;4981725;28;20201;-73
2022/04/06 03:51:35;;;;;;;11.60;4.57;;;;;;;8.68;100.00;99935.72;4978484;28;20201;-73
2022/04/06 03:54:01;;;;;;;12.20;4.40;;;;;;;8.53;100.00;99901.22;4981709;28;20663;-73
2022/04/06 03:56:26;;;;;;;6.33;3.90;;;;;;;8.30;100.00;99866.88;4980777;28;20468;-73
2022/04/06 03:58:52;;;;;;;12.97;4.23;;;;;;;8.82;100.00;99938.19;4980761;28;20263;-73
2022/04/06 04:01:17;;;;;;;12.27;4.90;;;;;;;8.28;100.00;99885.00;4978731;28;20201;-73
2022/04/06 04:03:43;;;;;;;9.10;3.73;;;;;;;8.49;100.00;99929.41;4978415;28;20217;-73
2022/04/06 04:06:08;;;;;;;11.50;4.10;;;;;;;8.18;100.00;99917.44;4980455;28;20205;-73
2022/04/06 04:08:34;;;;;;;9.13;4.20;;;;;;;8.57;100.00;99921.97;4971513;28;20647;-73
2022/04/06 04:10:59;;;;;;;7.97;3.20;;;;;;;8.56;100.00;99940.88;4980476;28;20287;-73
2022/04/06 04:13:24;;;;;;;7.30;4.00;;;;;;;8.19;100.00;99870.19;4974162;28;21157;-73
2022/04/06 04:15:50;;;;;;;8.80;3.70;;;;;;;8.21;100.00;99866.28;4976532;28;21192;-73
2022/04/06 04:18:16;;;;;;;6.70;3.23;;;;;;;8.16;100.00;99855.41;4978094;28;20190;-73
2022/04/06 04:20:45;;;;;;;8.17;3.10;;;;;;;8.48;100.00;99904.53;4976725;28;20825;-74
2022/04/06 04:23:11;;;;;;;12.90;3.67;;;;;;;8.25;100.00;99880.88;4977928;28;20183;-73
2022/04/06 04:25:36;;;;;;;4.97;3.30;;;;;;;8.32;100.00;99889.69;4977354;28;20485;-73
2022/04/06 04:28:01;;;;;;;6.50;3.30;;;;;;;8.44;100.00;99910.47;4979791;28;20461;-73
2022/04/06 04:30:27;;;;;;;7.80;3.73;;;;;;;8.36;100.00;99919.50;4979184;28;20190;-73
2022/04/06 04:32:52;;;;;;;9.73;3.60;;;;;;;8.27;100.00;99905.53;4975218;28;20651;-72
2022/04/06 04:35:17;;;;;;;17.70;4.10;;;;;;;7.89;100.00;99855.41;4981281;28;20197;-73
2022/04/06 04:37:43;;;;;;;8.00;3.60;;;;;;;8.14;100.00;99858.28;4976628;28;20185;-73
2022/04/06 04:40:09;;;;;;;5.93;3.00;;;;;;;8.30;100.00;99885.59;4974189;28;20716;-73
2022/04/06 04:42:34;;;;;;;7.23;3.03;;;;;;;8.41;100.00;99895.69;4976776;28;20573;-74
2022/04/06 04:45:00;;;;;;;8.03;3.53;;;;;;;8.47;100.00;99912.75;4976903;28;20855;-74
2022/04/06 04:47:25;;;;;;;8.77;3.73;;;;;;;8.24;100.00;99862.38;4978400;28;20267;-74
2022/04/06 04:49:50;;;;;;;9.50;4.07;;;;;;;8.41;100.00;99892.19;4974633;28;20563;-73
2022/04/06 04:52:16;;;;;;;8.43;3.27;;;;;;;8.04;100.00;99830.34;4978439;28;20413;-74
2022/04/06 04:54:41;;;;;;;13.50;5.43;;;;;;;8.27;100.00;99900.19;4980349;28;20602;-74
2022/04/06 04:57:07;;;;;;;10.53;4.30;;;;;;;8.29;100.00;99882.09;4981006;28;20221;-74
2022/04/06 04:59:32;;;;;;;10.73;4.40;;;;;;;8.41;100.00;99887.66;4980856;28;20189;-74
2022/04/06 05:01:57;;;;;;;11.10;5.00;;;;;;;8.60;100.00;99902.03;4979009;28;20194;-74
2022/04/06 05:04:23;;;;;;;9.83;4.80;;;;;;;8.40;100.00;99863.84;4974072;28;20208;-73
2022/04/06 05:06:49;;;;;;;13.00;5.23;;;;;;;8.24;100.00;99862.38;4975758;28;20345;-74
2022/04/06 05:09:14;;;;;;;10.03;4.80;;;;;;;8.04;100.00;99833.84;4977133;28;20189;-73
2022/04/06 05:11:40;;;;;;;13.50;5.90;;;;;;;8.07;100.00;99838.78;4976370;28;20190;-74
2022/04/06 05:14:05;;;;;;;12.60;5.53;;;;;;;8.23;100.00;99842.84;4977643;28;20190;-73
2022/04/06 05:16:31;;;;;;;14.57;6.30;;;;;;;8.27;100.00;99875.31;4977592;28;20220;-72
2022/04/06 05:18:58;;;;;;;10.20;5.13;;;;;;;8.58;100.00;99904.09;4974477;28;20870;-72
2022/04/06 05:21:23;;;;;;;13.93;5.63;;;;;;;8.38;100.00;99872.88;4974680;28;20990;-74
2022/04/06 05:23:49;;;;;;;14.23;6.63;;;;;;;8.44;100.00;99881.91;4977566;28;20449;-73
2022/04/06 05:26:14;;;;;;;14.87;7.57;;;;;;;7.84;100.00;99780.47;4979375;28;20264;-73
2022/04/06 05:28:39;;;;;;;18.83;7.70;;;;;;;8.48;100.00;99893.84;4975923;28;20177;-73
2022/04/06 05:31:05;;;;;;;17.07;6.90;;;;;;;8.54;100.00;99884.97;4977843;28;20892;-73
2022/04/06 05:33:30;;;;;;;14.50;6.53;;;;;;;8.17;100.00;99798.28;4978055;28;20209;-73
2022/04/06 05:35:55;;;;;;;22.83;8.13;;;;;;;8.65;100.00;99880.00;4976398;28;20709;-73
2022/04/06 05:38:21;;;;;;;13.60;5.63;;;;;;;8.42;100.00;99869.78;4978968;28;20193;-72
2022/04/06 05:40:46;;;;;;;11.90;5.27;;;;;;;8.57;100.00;99846.31;4974914;28;20264;-73
2022/04/06 05:43:13;;;;;;;13.23;6.23;;;;;;;8.48;100.00;99844.91;4977142;28;20304;-73
2022/04/06 05:45:38;;;;;;;14.33;6.70;;;;;;;8.31;100.00;99812.44;4975228;28;20470;-73
2022/04/06 05:48:07;;;;;;;14.50;6.73;;;;;;;8.24;100.00;99812.44;4975641;28;20264;-74
2022/04/06 05:50:32;;;;;;;12.40;5.50;;;;;;;8.56;100.00;99852.69;4975836;28;20677;-74
2022/04/06 05:52:58;;;;;;;12.17;5.60;;;;;;;8.32;100.00;99820.22;4974974;28;20472;-73
2022/04/06 05:55:23;;;;;;;12.80;5.40;;;;;;;8.73;100.00;99861.88;4962761;28;20275;-74
2022/04/06 05:57:49;;;;;;;12.37;6.17;;;;;;;8.33;100.00;99824.56;4966936;28;20232;-74
2022/04/06 06:00:15;;;;;;;12.60;5.63;;;;;;;8.63;100.00;99880.22;4970128;28;20189;-73
2022/04/06 06:02:42;;;;;;;12.77;5.67;;;;;;;8.34;100.00;99828.06;4961812;28;20185;-73
2022/04/06 06:05:08;;;;;;;9.27;4.80;;;;;;;8.32;100.00;99814.88;4969263;28;20437;-73
2022/04/06 06:07:33;;;;;;;12.50;5.60;;;;;;;8.44;100.00;99825.78;4965882;28;20495;-74
2022/04/06 06:09:59;;;;;;;7.67;5.17;;;;;;;8.56;100.00;99869.56;4965649;28;20198;-75
2022/04/06 06:12:25;;;;;;;8.10;4.70;;;;;;;8.33;100.00;99856.63;4981351;28;20221;-76
2022/04/06 06:14:51;;;;;;;13.43;5.67;;;;;;;8.27;100.00;99820.03;4956861;28;20449;-77
2022/04/06 06:17:16;;;;;;;13.60;5.40;;;;;;;8.51;100.00;99874.72;4964434;28;20608;-75
2022/04/06 06:19:42;;;;;;;9.60;5.17;;;;;;;8.44;100.00;99865.88;4966522;28;20200;-75
2022/04/06 06:22:07;;;;;;;11.20;4.70;;;;;;;8.19;100.00;99824.78;4964194;28;20377;-74
2022/04/06 06:24:32;;;;;;;9.23;4.30;;;;;;;8.07;100.00;99811.22;4967952;28;21463;-75
2022/04/06 06:26:58;;;;;;;9.73;4.50;;;;;;;8.36;100.00;99877.59;4968685;28;20205;-75
2022/04/06 06:29:24;;;;;;;12.00;4.80;;;;;;;8.46;100.00;99874.50;4969165;28;20190;-75
2022/04/06 06:31:49;;;;;;;13.37;5.40;;;;;;;7.93;100.00;99789.91;4967092;28;20616;-74
2022/04/06 06:34:15;;;;;;;13.93;5.33;;;;;;;7.78;100.00;99797.31;4966299;28;20190;-74
2022/04/06 06:36:40;;;;;;;9.17;4.77;;;;;;;8.15;100.00;99827.03;4967777;28;20218;-75
2022/04/06 06:39:06;;;;;;;11.20;5.57;;;;;;;7.73;100.00;99781.09;4965078;28;20198;-77
2022/04/06 06:41:32;;;;;;;10.00;5.27;;;;;;;8.25;100.00;99859.50;4964125;28;20239;-75
2022/04/06 06:43:58;;;;;;;13.10;5.43;;;;;;;7.18;100.00;99716.41;4958915;28;20541;-74
2022/04/06 06:46:24;;;;;;;12.30;4.93;;;;;;;8.37;100.00;99867.72;4970464;28;20210;-74
2022/04/06 06:48:51;;;;;;;10.70;4.70;;;;;;;8.21;100.00;99871.63;4974829;28;20453;-73
2022/04/06 06:51:17;;;;;;;13.93;4.60;;;;;;;8.31;100.00;99869.34;4966954;28;20208;-75
2022/04/06 06:53:43;;;;;;;4.93;3.40;;;;;;;8.01;100.00;99812.88;4970163;28;20481;-73
2022/04/06 06:56:08;;;;;;;11.43;4.40;;;;;;;7.51;100.00;99750.28;4970972;28;20475;-75
2022/04/06 07:09:45;;;;;;;5.97;3.03;;;;;;;8.30;100.00;99866.88;5098225;27;20582;-71
2022/04/06 07:12:11;;;;;;;7.87;2.93;;;;;;;8.05;100.00;99834.66;5100032;27;20452;-73
2022/04/06 07:14:37;;;;;;;6.63;3.70;;;;;;;7.78;100.00;99816.00;5092707;28;20178;-74
2022/04/06 07:17:03;;;;;;;5.67;3.33;;;;;;;7.89;100.00;99810.00;5096817;28;20254;-73
2022/04/06 07:19:28;;;;;;;7.10;3.53;;;;;;;8.32;100.00;99867.50;5096763;28;20466;-73
2022/04/06 07:21:53;;;;;;;3.50;2.40;;;;;;;7.83;100.00;99784.13;5098282;28;20309;-73
2022/04/06 07:24:19;;;;;;;7.10;2.93;;;;;;;7.99;100.00;99833.66;5098178;28;20216;-73
2022/04/06 07:26:44;;;;;;;6.97;2.80;;;;;;;8.26;100.00;99854.97;5101888;28;20225;-72
2022/04/06 07:29:11;;;;;;;2.53;2.20;;;;;;;8.08;100.00;99872.47;5096952;28;20890;-73
2022/04/06 07:31:40;;;;;;;5.53;2.77;;;;;;;7.96;100.00;99817.22;5101359;28;20207;-73
2022/04/06 07:34:06;;;;;;;6.73;3.40;;;;;;;7.73;100.00;99757.06;5101279;28;20438;-73
2022/04/06 07:36:35;;;;;;;4.37;2.00;;;;;;;8.24;100.00;99849.84;5104550;28;20446;-73
2022/04/06 07:39:03;;;;;;;8.97;3.37;;;;;;;8.19;100.00;99856.81;5086034;28;20190;-73
2022/04/06 07:41:30;;;;;;;8.13;2.50;;;;;;;8.04;100.00;99843.69;5096759;28;20522;-73
2022/04/06 07:43:55;;;;;;;7.03;2.70;;;;;;;7.38;100.00;99759.94;5099713;28;20981;-73
2022/04/06 07:46:20;;;;;;;7.23;3.07;;;;;;;7.81;100.00;99804.06;5101612;28;20596;-73
2022/04/06 07:48:46;;;;;;;5.57;2.00;;;;;;;7.49;100.00;99747.81;5097694;28;20241;-73
2022/04/06 07:51:11;;;;;;;6.17;2.33;;;;;;;7.58;100.00;99759.09;5099518;28;20239;-73
2022/04/06 07:53:37;;;;;;;3.73;2.33;;;;;;;8.04;100.00;99857.03;5093976;28;20720;-72
2022/04/06 07:56:02;;;;;;;2.93;1.83;;;;;;;7.24;100.00;99735.09;5094151;28;20682;-73
2022/04/06 07:58:28;;;;;;;5.50;2.27;;;;;;;7.50;100.00;99762.81;5093358;28;20207;-72
2022/04/06 08:00:53;;;;;;;5.07;2.17;;;;;;;8.22;100.00;99851.09;5101403;28;20220;-73
2022/04/06 08:03:19;;;;;;;4.53;2.43;;;;;;;8.09;100.00;99849.25;5097818;28;20224;-72
2022/04/06 08:05:44;;;;;;;7.70;2.63;;;;;;;8.00;100.00;99848.63;5100228;28;20185;-73
2022/04/06 08:08:09;;;;;;;7.27;2.10;;;;;;;7.82;100.00;99793.19;5089261;28;20293;-73
2022/04/06 08:10:35;;;;;;;4.73;2.53;;;;;;;7.67;100.00;99808.59;5078747;27;20954;-73
2022/04/06 08:13:00;;;;;;;7.13;2.30;;;;;;;8.14;100.00;99844.91;5084631;28;20185;-73
2022/04/06 08:15:26;;;;;;;6.93;2.57;;;;;;;7.99;100.00;99814.13;5080008;28;20191;-73
2022/04/06 08:17:51;;;;;;;3.20;2.10;;;;;;;7.60;100.00;99767.72;5080704;28;20206;-73
2022/04/06 08:20:18;;;;;;;2.83;1.70;;;;;;;7.81;100.00;99802.22;5081011;28;20209;-74
2022/04/06 08:22:45;;;;;;;6.70;2.50;;;;;;;8.01;100.00;99833.41;5080783;28;21148;-74
2022/04/06 08:25:11;;;;;;;4.30;2.10;;;;;;;7.55;100.00;99756.84;5084928;28;20444;-74
2022/04/06 08:27:40;;;;;;;4.23;1.70;;;;;;;7.73;100.00;99804.28;5088175;28;20460;-74
2022/04/06 08:30:07;;;;;;;3.93;1.73;;;;;;;7.66;100.00;99766.91;5082088;28;21127;-73
2022/04/06 08:32:33;;;;;;;5.50;1.70;;;;;;;8.09;100.00;99836.69;5084018;28;20443;-74
2022/04/06 08:34:59;;;;;;;4.70;2.83;;;;;;;7.88;100.00;99829.72;5077653;28;20456;-74
2022/04/06 08:37:25;;;;;;;4.87;2.73;;;;;;;8.03;100.00;99812.69;5082913;28;20352;-74
2022/04/06 08:39:50;;;;;;;3.67;2.03;;;;;;;7.07;100.00;99661.84;5076226;28;20201;-73
2022/04/06 08:42:16;;;;;;;4.30;1.77;;;;;;;8.27;100.00;99828.03;5078954;28;20463;-73
2022/04/06 08:44:42;;;;;;;4.53;2.40;;;;;;;7.95;100.00;99823.56;5073804;28;20182;-73
2022/04/06 08:47:08;;;;;;;7.50;2.30;;;;;;;7.78;100.00;99810.66;5075799;28;20195;-73
2022/04/06 08:49:35;;;;;;;11.70;2.93;;;;;;;7.40;100.00;99744.53;5076575;28;20210;-73
2022/04/06 08:52:03;;;;;;;8.43;2.90;;;;;;;7.72;100.00;99754.56;5077344;28;20448;-73
2022/04/06 08:54:29;;;;;;;6.33;2.70;;;;;;;7.64;100.00;99785.81;5080151;28;20487;-73
2022/04/06 08:56:55;;;;;;;8.33;2.40;;;;;;;8.14;100.00;99830.75;5082276;28;20988;-73
2022/04/06 08:59:21;;;;;;;6.83;2.47;;;;;;;7.81;100.00;99788.88;5083259;28;20435;-73
2022/04/06 09:01:46;;;;;;;7.23;2.43;;;;;;;7.78;100.00;99794.63;5077146;28;20202;-73
2022/04/06 09:04:12;;;;;;;5.80;2.53;;;;;;;8.03;100.00;99820.69;5077309;28;20223;-73
2022/04/06 09:06:43;;;;;;;9.20;3.00;;;;;;;7.85;100.00;99806.13;5080309;28;20187;-73
2022/04/06 09:09:09;;;;;;;5.87;2.40;;;;;;;7.65;100.00;99726.06;5083729;28;20495;-73
2022/04/06 09:11:44;;;;;;;8.90;2.60;;;;;;;7.77;100.00;99766.28;5084794;28;20447;-73
2022/04/06 09:14:12;;;;;;;5.30;2.60;;;;;;;8.14;100.00;99833.41;5078932;28;20982;-73
2022/04/06 09:16:37;;;;;;;9.27;3.13;;;;;;;7.43;100.00;99713.94;5079495;28;20444;-73
2022/04/06 09:19:08;;;;;;;6.33;2.20;;;;;;;7.59;100.00;99726.88;5081658;28;20439;-73
2022/04/06 09:21:39;;;;;;;5.50;2.70;;;;;;;7.79;100.00;99779.44;5073675;28;20182;-73
2022/04/06 09:24:04;;;;;;;6.63;2.90;;;;;;;7.35;100.00;99715.00;5070816;28;20446;-72
2022/04/06 09:26:31;;;;;;;4.70;2.10;;;;;;;7.68;100.00;99738.16;5070715;28;21177;-74
2022/04/06 09:28:57;;;;;;;9.93;2.63;;;;;;;8.13;100.00;99802.41;5080078;28;20743;-74
2022/04/06 09:31:23;;;;;;;9.87;4.30;;;;;;;8.10;100.00;99779.59;5084865;28;20468;-74
2022/04/06 09:33:59;;;;;;;6.70;2.37;;;;;;;8.12;100.00;99760.69;5083948;28;20189;-73
2022/04/06 09:36:27;;;;;;;7.80;3.13;;;;;;;8.07;100.00;99752.47;5078603;28;20280;-74
2022/04/06 09:38:53;;;;;;;12.53;2.60;;;;;;;7.87;100.00;99715.97;5075660;28;20441;-74
2022/04/06 09:41:19;;;;;;;7.40;2.50;;;;;;;8.17;100.00;99770.75;5073756;28;20478;-74
2022/04/06 09:43:46;;;;;;;8.60;3.30;;;;;;;7.84;100.00;99724.41;5075558;28;20522;-74
2022/04/06 09:49:14;;;;;;;9.93;3.67;;;;;;;8.39;100.00;99785.53;5072036;28;21420;-73
2022/04/06 09:51:42;;;;;;;7.17;3.07;;;;;;;8.60;100.00;99803.13;5073639;28;20452;-73
2022/04/06 09:54:10;;;;;;;13.47;3.83;;;;;;;7.93;100.00;99700.97;5077564;28;20479;-72
2022/04/06 09:56:36;;;;;;;8.30;3.10;;;;;;;7.66;100.00;99660.16;5084496;28;20450;-72
2022/04/06 09:59:03;;;;;;;7.40;2.60;;;;;;;8.45;100.00;99792.69;5080246;28;20483;-72
2022/04/06 10:01:34;;;;;;;5.83;2.23;;;;;;;8.57;100.00;99791.00;5071127;28;20451;-72
2022/04/06 10:04:06;;;;;;;10.43;2.77;;;;;;;8.28;100.00;99754.09;5084510;28;20529;-72
2022/04/06 10:06:36;;;;;;;14.10;3.60;;;;;;;8.04;100.00;99727.03;5083201;28;21039;-72
2022/04/06 10:09:04;;;;;;;5.07;2.83;;;;;;;8.13;100.00;99712.41;5073828;28;20464;-72
2022/04/06 10:11:30;;;;;;;12.00;2.30;;;;;;;8.63;100.00;99791.22;5083086;28;20478;-73
2022/04/06 10:14:00;;;;;;;12.37;3.40;;;;;;;8.58;100.00;99779.28;5083804;28;20466;-73
2022/04/06 10:16:26;;;;;;;8.50;3.10;;;;;;;8.67;100.00;99789.72;5088101;28;20436;-73
2022/04/06 10:18:53;;;;;;;9.63;2.97;;;;;;;8.68;100.00;99781.50;5083541;28;20435;-72
2022/04/06 10:21:31;;;;;;;9.10;2.63;;;;;;;8.80;100.00;99785.16;5086279;28;20210;-72
2022/04/06 10:24:07;;;;;;;10.83;2.97;;;;;;;8.87;100.00;99776.28;5086651;28;20951;-72
2022/04/06 10:26:48;;;;;;;6.20;2.70;;;;;;;8.78;100.00;99773.84;5082548;28;20532;-72
2022/04/06 10:29:22;;;;;;;6.67;2.60;;;;;;;8.69;100.00;99735.03;5075119;28;20463;-72
2022/04/06 10:31:48;;;;;;;7.27;2.50;;;;;;;8.89;100.00;99736.78;5088658;28;20441;-72
2022/04/06 10:34:30;;;;;;;8.60;3.17;;;;;;;8.57;100.00;99685.94;5082979;28;20436;-72
2022/04/06 10:37:13;;;;;;;7.50;3.23;;;;;;;8.80;100.00;99750.41;5084488;28;20472;-72
2022/04/06 10:39:51;;;;;;;8.80;2.73;;;;;;;8.83;100.00;99741.94;5074735;28;20539;-73
2022/04/06 10:42:28;;;;;;;9.13;2.70;;;;;;;8.60;100.00;99698.88;5083872;28;20489;-73
2022/04/06 10:44:53;;;;;;;6.83;2.70;;;;;;;8.91;100.00;99748.91;5084412;28;20446;-73
2022/04/06 10:47:22;;;;;;;9.17;2.97;;;;;;;8.87;100.00;99744.19;5086794;28;20439;-72
2022/04/06 10:50:13;;;;;;;8.20;2.87;;;;;;;8.97;100.00;99747.22;5087817;28;20213;-73
2022/04/06 10:52:39;;;;;;;10.70;3.03;;;;;;;8.51;100.00;99678.78;5087870;28;20808;-73
2022/04/06 10:55:09;;;;;;;8.47;2.80;;;;;;;8.70;100.00;99693.88;5077906;28;20818;-73
2022/04/06 10:58:11;;;;;;;7.07;2.40;;;;;;;8.82;100.00;99745.66;5084849;28;20974;-73
2022/04/06 11:00:39;;;;;;;11.67;3.33;;;;;;;8.64;100.00;99683.22;5050941;28;21020;-73
2022/04/06 11:03:18;;;;;;;14.33;3.57;;;;;;;8.73;100.00;99725.53;5072329;28;20440;-72
2022/04/06 11:05:46;;;;;;;9.23;2.90;;;;;;;8.92;100.00;99720.31;5080536;28;20445;-73
2022/04/06 11:11:47;;;;;;;17.30;3.40;;;;;;;8.79;100.00;99703.31;5076632;28;20505;-73
2022/04/06 11:14:33;;;;;;;16.10;3.90;;;;;;;8.88;100.00;99716.41;5086797;28;20479;-73
2022/04/06 11:16:59;;;;;;;9.47;3.33;;;;;;;8.51;100.00;99654.75;5086934;28;20439;-73
2022/04/06 11:19:25;;;;;;;8.10;2.97;;;;;;;8.52;100.00;99670.53;5083200;28;21013;-72
2022/04/06 11:21:52;;;;;;;11.37;3.77;;;;;;;8.82;100.00;99726.94;5084732;28;20269;-71
2022/04/06 11:24:23;;;;;;;13.13;4.10;;;;;;;8.76;100.00;99713.59;5082666;28;20531;-72
2022/04/06 11:26:49;;;;;;;7.73;3.63;;;;;;;8.47;100.00;99662.34;5084498;28;21176;-72
2022/04/06 11:29:14;;;;;;;9.10;3.60;;;;;;;8.81;100.00;99727.97;5066237;28;20464;-72
2022/04/06 11:32:02;;;;;;;11.73;3.17;;;;;;;8.70;100.00;99711.78;5082547;28;21993;-72
2022/04/06 11:34:36;;;;;;;8.60;2.80;;;;;;;8.91;100.00;99705.28;5081853;28;20288;-72
2022/04/06 11:37:12;;;;;;;9.03;3.20;;;;;;;8.79;100.00;99702.47;5081399;28;20527;-72
2022/04/06 11:39:37;;;;;;;9.37;3.70;;;;;;;8.63;100.00;99689.63;5083238;28;20455;-72
2022/04/06 11:42:14;;;;;;;10.80;2.83;;;;;;;8.72;100.00;99721.22;5076438;28;20460;-72
2022/04/06 11:44:40;;;;;;;7.87;3.10;;;;;;;8.91;100.00;99694.59;5082433;28;20220;-72
2022/04/06 11:47:05;;;;;;;10.47;3.37;;;;;;;8.70;100.00;99680.50;5084595;28;20526;-72